Time;durP1;ratioP1;P1;durP2;ratioP2;P2;SDS_P1;SDS_P2;PMS_P1;PMS_P2;Temp;Humidity;BMP_temperature;BMP_pressure;BME280_temperature;BME280_humidity;BME280_pressure;Samples;Min_cycle;Max_cycle;Signal;HPM_P1;HPM_P2
2023/09/11 00:00:46;;;;;;;11.05;8.25;;;;;20.90;100874.00;;;;9996805;29;20247;-80
2023/09/11 00:05:49;;;;;;;11.63;7.90;;;;;20.80;100874.00;;;;10020485;29;21227;-80
2023/09/11 00:11:05;;;;;;;19.10;9.00;;;;;20.80;100873.00;;;;10003411;29;20328;-79
2023/09/11 00:16:07;;;;;;;12.90;8.18;;;;;20.70;100858.00;;;;9995707;29;20746;-80
2023/09/11 00:21:08;;;;;;;13.10;8.05;;;;;20.60;100856.00;;;;10019756;29;20694;-81
2023/09/11 00:26:10;;;;;;;12.50;8.30;;;;;20.60;100854.00;;;;9964983;29;20232;-79
2023/09/11 00:31:11;;;;;;;11.68;7.75;;;;;20.50;100846.00;;;;10004575;29;20263;-81
2023/09/11 00:36:13;;;;;;;13.50;7.80;;;;;20.40;100843.00;;;;9997640;29;20224;-80
2023/09/11 00:41:15;;;;;;;14.40;8.20;;;;;20.40;100837.00;;;;9984200;29;20225;-80
2023/09/11 00:46:16;;;;;;;10.10;7.47;;;;;20.40;100826.00;;;;10002402;29;20224;-80
2023/09/11 00:51:18;;;;;;;14.88;8.20;;;;;20.30;100831.00;;;;10005442;29;20235;-78
2023/09/11 00:56:19;;;;;;;13.32;7.97;;;;;20.30;100819.00;;;;9998128;29;20232;-78
2023/09/11 01:01:23;;;;;;;10.50;7.13;;;;;20.30;100812.00;;;;10008586;29;21379;-79
2023/09/11 01:06:24;;;;;;;14.20;7.63;;;;;20.30;100807.00;;;;9980587;29;20330;-79
2023/09/11 01:11:26;;;;;;;9.50;7.20;;;;;20.30;100811.00;;;;10001136;29;20487;-80
2023/09/11 01:16:27;;;;;;;12.70;8.45;;;;;20.20;100810.00;;;;9993796;29;20620;-79
2023/09/11 01:21:38;;;;;;;15.10;7.57;;;;;20.20;100809.00;;;;9994865;29;20483;-80
2023/09/11 01:26:58;;;;;;;8.95;6.93;;;;;20.30;100811.00;;;;9963572;29;21479;-78
2023/09/11 01:32:02;;;;;;;12.25;7.57;;;;;20.50;100825.00;;;;9998026;29;20343;-80
2023/09/11 01:37:04;;;;;;;10.77;7.18;;;;;20.50;100819.00;;;;9997621;29;20307;-79
2023/09/11 01:42:09;;;;;;;11.70;7.53;;;;;20.40;100827.00;;;;10000064;29;20259;-80
2023/09/11 01:47:18;;;;;;;11.40;6.85;;;;;20.30;100824.00;;;;10013895;29;20275;-79
2023/09/11 01:52:20;;;;;;;14.02;6.88;;;;;20.40;100825.00;;;;9992148;29;20243;-80
2023/09/11 01:57:26;;;;;;;10.57;6.72;;;;;20.50;100818.00;;;;9978562;29;20235;-80
2023/09/11 02:02:29;;;;;;;12.63;7.13;;;;;20.60;100821.00;;;;10017603;29;20219;-79
2023/09/11 02:07:31;;;;;;;11.18;7.00;;;;;20.60;100830.00;;;;10006899;29;20220;-80
2023/09/11 02:12:32;;;;;;;11.52;7.63;;;;;20.60;100828.00;;;;9979737;29;20236;-79
2023/09/11 02:17:34;;;;;;;11.48;7.53;;;;;20.50;100829.00;;;;10002464;29;20644;-81
2023/09/11 02:22:36;;;;;;;11.38;7.57;;;;;20.40;100816.00;;;;9991915;29;20518;-80
2023/09/11 02:27:38;;;;;;;9.70;6.65;;;;;20.40;100809.00;;;;9971293;29;20820;-80
2023/09/11 02:32:39;;;;;;;9.13;7.00;;;;;20.30;100807.00;;;;10016217;29;20331;-81
2023/09/11 02:37:41;;;;;;;11.85;7.18;;;;;20.20;100805.00;;;;10004209;29;20372;-81
2023/09/11 02:42:44;;;;;;;12.10;7.10;;;;;20.20;100810.00;;;;10022129;29;20493;-80
2023/09/11 02:47:46;;;;;;;9.73;6.93;;;;;20.10;100803.00;;;;9992635;29;21666;-80
2023/09/11 02:52:47;;;;;;;11.13;7.07;;;;;20.10;100799.00;;;;10008266;29;20228;-81
2023/09/11 02:57:48;;;;;;;11.95;7.20;;;;;20.10;100798.00;;;;10007506;29;21470;-81
2023/09/11 03:02:50;;;;;;;12.75;7.30;;;;;20.00;100780.00;;;;9976870;29;20736;-81
2023/09/11 03:07:51;;;;;;;12.00;7.53;;;;;20.00;100790.00;;;;10000277;29;20216;-82
2023/09/11 03:12:54;;;;;;;11.43;7.70;;;;;19.90;100785.00;;;;10016169;29;20251;-80
2023/09/11 03:17:55;;;;;;;10.57;7.90;;;;;19.80;100785.00;;;;10014694;29;20219;-79
2023/09/11 03:22:59;;;;;;;12.35;7.90;;;;;19.70;100769.00;;;;10000880;29;20205;-81
2023/09/11 03:28:01;;;;;;;13.25;7.47;;;;;19.60;100765.00;;;;10009539;29;20220;-79
2023/09/11 03:33:03;;;;;;;12.25;7.25;;;;;19.50;100761.00;;;;10006192;29;20386;-81
2023/09/11 03:38:05;;;;;;;10.15;7.10;;;;;19.50;100769.00;;;;9990687;29;20223;-80
2023/09/11 03:43:07;;;;;;;11.15;7.47;;;;;19.40;100772.00;;;;10001851;29;20767;-83
2023/09/11 03:48:09;;;;;;;13.13;7.68;;;;;19.30;100769.00;;;;9983510;29;20240;-81
2023/09/11 03:53:12;;;;;;;15.02;7.15;;;;;19.30;100771.00;;;;10009155;29;20240;-82
2023/09/11 03:58:13;;;;;;;11.35;7.63;;;;;19.30;100762.00;;;;9998323;29;20300;-83
2023/09/11 04:03:15;;;;;;;11.13;7.57;;;;;19.30;100760.00;;;;10003715;29;21073;-80
2023/09/11 04:08:17;;;;;;;7.93;7.13;;;;;19.30;100760.00;;;;10000296;29;20227;-82
2023/09/11 04:13:18;;;;;;;10.95;7.72;;;;;19.30;100767.00;;;;9996080;29;20278;-82
2023/09/11 04:18:20;;;;;;;16.88;8.68;;;;;19.20;100771.00;;;;10020310;29;20224;-80
2023/09/11 04:23:22;;;;;;;11.68;8.40;;;;;19.20;100765.00;;;;10003161;29;20268;-79
2023/09/11 04:28:23;;;;;;;12.93;8.60;;;;;19.20;100763.00;;;;9991035;29;20232;-80
2023/09/11 04:33:25;;;;;;;15.52;9.52;;;;;19.30;100760.00;;;;10019288;29;20242;-80
2023/09/11 04:38:27;;;;;;;15.57;8.98;;;;;19.30;100763.00;;;;9984567;29;20227;-80
2023/09/11 04:43:28;;;;;;;14.02;9.20;;;;;19.30;100759.00;;;;9974061;29;20216;-81
2023/09/11 04:48:30;;;;;;;14.63;9.60;;;;;19.30;100775.00;;;;9996372;29;20224;-83
2023/09/11 04:53:32;;;;;;;13.23;9.50;;;;;19.20;100779.00;;;;9987243;29;20236;-80
2023/09/11 04:58:33;;;;;;;18.15;9.27;;;;;19.20;100782.00;;;;10002841;29;20783;-80
2023/09/11 05:03:35;;;;;;;15.82;9.82;;;;;19.20;100781.00;;;;9985708;29;20216;-80
2023/09/11 05:08:37;;;;;;;14.45;10.68;;;;;19.20;100788.00;;;;9978980;29;21509;-80
2023/09/11 05:14:00;;;;;;;14.77;10.32;;;;;19.20;100785.00;;;;9995323;29;20284;-80
2023/09/11 05:19:01;;;;;;;22.15;10.77;;;;;19.20;100787.00;;;;9989977;29;20232;-81
2023/09/11 05:24:04;;;;;;;16.77;10.43;;;;;19.40;100793.00;;;;9999052;29;20232;-80
2023/09/11 05:29:05;;;;;;;16.42;10.82;;;;;19.50;100783.00;;;;10007274;29;20266;-83
2023/09/11 05:34:07;;;;;;;12.55;11.25;;;;;19.60;100779.00;;;;9999032;29;20766;-81
2023/09/11 05:39:08;;;;;;;15.52;11.68;;;;;19.70;100795.00;;;;9981510;29;20232;-80
2023/09/11 05:44:09;;;;;;;21.17;12.13;;;;;19.90;100787.00;;;;10006554;29;20220;-82
2023/09/11 05:49:11;;;;;;;20.83;11.60;;;;;20.00;100791.00;;;;10013325;29;20250;-80
2023/09/11 05:54:13;;;;;;;17.23;11.63;;;;;20.20;100797.00;;;;9988273;29;20243;-80
2023/09/11 05:59:18;;;;;;;16.23;11.73;;;;;20.20;100799.00;;;;10011969;29;20247;-80
2023/09/11 06:04:20;;;;;;;17.83;11.40;;;;;20.20;100808.00;;;;10024148;29;20252;-80
2023/09/11 06:09:21;;;;;;;16.80;12.25;;;;;20.40;100808.00;;;;9986679;29;20223;-81
2023/09/11 06:14:23;;;;;;;22.85;13.45;;;;;20.70;100804.00;;;;10001895;29;20270;-81
2023/09/11 06:19:25;;;;;;;17.65;12.25;;;;;20.90;100798.00;;;;9999286;29;20231;-81
2023/09/11 06:24:26;;;;;;;17.52;12.05;;;;;21.40;100807.00;;;;10013000;29;20280;-80
2023/09/11 06:29:27;;;;;;;18.50;13.55;;;;;22.10;100810.00;;;;10020480;29;21886;-82
2023/09/11 06:34:29;;;;;;;20.45;13.10;;;;;22.60;100814.00;;;;9966448;29;20228;-82
2023/09/11 06:39:31;;;;;;;16.08;11.95;;;;;23.00;100819.00;;;;9987027;29;20227;-82
2023/09/11 06:44:32;;;;;;;19.48;12.90;;;;;22.70;100813.00;;;;9976761;29;20220;-82
2023/09/11 06:49:34;;;;;;;21.45;11.95;;;;;22.80;100806.00;;;;9987627;29;20212;-82
2023/09/11 06:54:35;;;;;;;20.33;12.23;;;;;23.00;100814.00;;;;9982092;29;20378;-83
2023/09/11 06:59:37;;;;;;;19.63;10.65;;;;;23.70;100827.00;;;;9977895;29;20769;-81
2023/09/11 07:04:38;;;;;;;13.30;10.00;;;;;23.40;100818.00;;;;10003228;29;20235;-81
2023/09/11 07:09:40;;;;;;;16.98;10.00;;;;;23.70;100820.00;;;;9989508;29;20940;-82
2023/09/11 07:14:41;;;;;;;15.90;10.75;;;;;23.80;100824.00;;;;10014976;29;20579;-82
2023/09/11 07:19:46;;;;;;;19.10;10.50;;;;;23.80;100829.00;;;;9987330;29;20216;-82
2023/09/11 07:24:47;;;;;;;20.65;10.63;;;;;24.10;100833.00;;;;9991783;29;20219;-81
2023/09/11 07:29:49;;;;;;;16.83;9.68;;;;;23.80;100829.00;;;;10012945;29;20227;-82
2023/09/11 07:34:50;;;;;;;14.02;9.07;;;;;23.40;100825.00;;;;10011503;29;20362;-81
2023/09/11 07:39:52;;;;;;;12.68;8.60;;;;;23.80;100836.00;;;;10023218;29;20208;-81
2023/09/11 07:44:53;;;;;;;15.77;8.88;;;;;24.20;100839.00;;;;9975002;29;20256;-81
2023/09/11 07:49:54;;;;;;;16.50;9.00;;;;;24.50;100836.00;;;;9976589;29;20807;-83
2023/09/11 07:54:57;;;;;;;15.27;9.15;;;;;24.70;100836.00;;;;9964836;29;20247;-82
2023/09/11 08:00:04;;;;;;;12.43;8.90;;;;;25.00;100832.00;;;;9985162;29;21754;-82
2023/09/11 08:05:06;;;;;;;15.88;8.82;;;;;25.20;100839.00;;;;9994788;29;21134;-82
2023/09/11 08:10:08;;;;;;;9.95;7.97;;;;;25.60;100830.00;;;;9984005;29;21053;-83
2023/09/11 08:15:09;;;;;;;10.82;8.65;;;;;25.80;100828.00;;;;9976237;29;20274;-82
2023/09/11 08:20:12;;;;;;;9.88;6.78;;;;;26.00;100835.00;;;;9997995;29;20220;-80
2023/09/11 08:25:15;;;;;;;11.43;7.32;;;;;26.20;100849.00;;;;9978286;29;20228;-82
2023/09/11 08:30:16;;;;;;;10.57;6.97;;;;;26.40;100851.00;;;;10005600;29;20813;-81
2023/09/11 08:35:17;;;;;;;10.15;7.18;;;;;27.10;100865.00;;;;9980457;29;20256;-82
2023/09/11 08:40:20;;;;;;;14.43;7.47;;;;;27.60;100870.00;;;;10005903;29;20228;-81
2023/09/11 08:45:24;;;;;;;10.57;7.03;;;;;28.00;100870.00;;;;10005719;29;20219;-83
2023/09/11 08:50:39;;;;;;;10.10;6.57;;;;;28.50;100867.00;;;;9996466;29;20232;-81
2023/09/11 08:55:41;;;;;;;12.05;6.18;;;;;28.50;100874.00;;;;9980939;29;20216;-82
2023/09/11 09:00:43;;;;;;;11.32;6.07;;;;;28.50;100876.00;;;;9981010;29;20220;-81
2023/09/11 09:05:45;;;;;;;12.93;5.75;;;;;28.70;100871.00;;;;9997063;29;20245;-82
2023/09/11 09:10:48;;;;;;;11.57;5.70;;;;;29.10;100866.00;;;;9998762;29;20224;-81
2023/09/11 09:15:49;;;;;;;10.52;5.10;;;;;29.60;100859.00;;;;9982239;29;20365;-80
2023/09/11 09:20:50;;;;;;;9.45;4.70;;;;;29.50;100862.00;;;;10000388;29;20730;-81
2023/09/11 09:26:02;;;;;;;9.82;4.70;;;;;29.40;100861.00;;;;9977084;29;20710;-80
2023/09/11 09:31:04;;;;;;;8.18;4.20;;;;;29.60;100858.00;;;;10014641;29;21391;-82
2023/09/11 09:36:07;;;;;;;11.23;4.57;;;;;29.80;100864.00;;;;9973408;29;21377;-82
2023/09/11 09:41:12;;;;;;;7.07;4.15;;;;;29.90;100862.00;;;;9973822;29;20232;-82
2023/09/11 09:46:19;;;;;;;7.78;4.28;;;;;30.10;100859.00;;;;9993341;29;20331;-81
2023/09/11 09:51:21;;;;;;;8.73;4.53;;;;;30.40;100857.00;;;;9994989;29;20546;-82
2023/09/11 09:56:22;;;;;;;11.32;4.22;;;;;30.80;100844.00;;;;10022222;29;21539;-80
2023/09/11 10:01:24;;;;;;;9.57;4.57;;;;;30.90;100844.00;;;;9997916;29;20238;-82
2023/09/11 10:06:27;;;;;;;5.78;3.75;;;;;31.00;100845.00;;;;10019687;29;20212;-82
2023/09/11 10:11:31;;;;;;;6.45;3.88;;;;;31.40;100843.00;;;;10004722;29;20252;-81
2023/09/11 10:16:33;;;;;;;8.40;4.38;;;;;31.30;100838.00;;;;10029640;29;20216;-80
2023/09/11 10:21:35;;;;;;;5.97;3.92;;;;;31.40;100833.00;;;;9995911;29;20220;-80
2023/09/11 10:26:43;;;;;;;11.30;4.30;;;;;31.20;100829.00;;;;10020042;29;20254;-81
2023/09/11 10:32:14;;;;;;;6.72;3.75;;;;;31.10;100826.00;;;;9999082;29;20239;-79
2023/09/11 10:37:18;;;;;;;7.90;3.53;;;;;31.40;100830.00;;;;10020228;29;20832;-80
2023/09/11 10:42:19;;;;;;;8.35;4.22;;;;;31.70;100834.00;;;;10011526;29;20275;-81
2023/09/11 10:47:22;;;;;;;5.57;3.45;;;;;32.20;100824.00;;;;10013553;29;20276;-80
2023/09/11 10:52:25;;;;;;;7.68;3.40;;;;;32.30;100821.00;;;;10039609;29;20317;-80
2023/09/11 10:57:26;;;;;;;8.30;3.67;;;;;32.60;100818.00;;;;10027780;29;20224;-81
2023/09/11 11:02:29;;;;;;;9.45;3.35;;;;;32.90;100820.00;;;;10021569;29;20224;-80
2023/09/11 11:07:31;;;;;;;7.95;3.47;;;;;32.90;100814.00;;;;10016323;29;20231;-79
2023/09/11 11:12:34;;;;;;;6.82;3.80;;;;;33.30;100817.00;;;;10013932;29;20240;-78
2023/09/11 11:17:38;;;;;;;8.90;3.50;;;;;33.40;100816.00;;;;10017128;29;20346;-78
2023/09/11 11:22:41;;;;;;;6.68;3.47;;;;;33.20;100811.00;;;;10033350;29;20228;-80
2023/09/11 11:27:45;;;;;;;11.90;4.13;;;;;33.60;100798.00;;;;10002002;29;20255;-78
2023/09/11 11:32:48;;;;;;;12.10;3.55;;;;;34.00;100800.00;;;;10035564;29;20247;-78
2023/09/11 11:37:52;;;;;;;7.03;3.30;;;;;34.30;100795.00;;;;10018988;29;20350;-80
2023/09/11 11:42:54;;;;;;;8.55;3.67;;;;;33.50;100799.00;;;;10017706;29;20935;-79
2023/09/11 11:47:56;;;;;;;4.97;3.20;;;;;33.30;100800.00;;;;10019478;29;20436;-80
2023/09/11 11:52:57;;;;;;;6.03;3.28;;;;;33.60;100797.00;;;;10014538;29;20239;-80
2023/09/11 11:57:58;;;;;;;6.85;3.88;;;;;33.90;100795.00;;;;10004637;29;20219;-81
2023/09/11 12:03:03;;;;;;;8.93;3.10;;;;;33.90;100800.00;;;;10035981;29;21976;-79
2023/09/11 12:08:10;;;;;;;5.10;3.00;;;;;33.20;100804.00;;;;10016670;29;20224;-80
2023/09/11 12:13:12;;;;;;;6.20;3.33;;;;;33.30;100804.00;;;;10013588;29;20318;-79
2023/09/11 12:18:14;;;;;;;6.63;3.15;;;;;33.20;100796.00;;;;10001167;29;21137;-79
2023/09/11 12:23:16;;;;;;;8.43;3.47;;;;;33.50;100796.00;;;;10000844;29;21952;-79
2023/09/11 12:28:20;;;;;;;4.63;2.88;;;;;33.90;100790.00;;;;10009741;29;20304;-81
2023/09/11 12:33:23;;;;;;;6.03;2.92;;;;;33.70;100782.00;;;;10026710;29;20271;-80
2023/09/11 12:38:26;;;;;;;4.97;2.97;;;;;32.90;100801.00;;;;10004929;29;20256;-82
2023/09/11 12:43:29;;;;;;;8.05;3.28;;;;;32.10;100792.00;;;;10032314;29;20220;-80
2023/09/11 12:48:31;;;;;;;5.47;3.15;;;;;32.10;100790.00;;;;10014386;29;20525;-80
2023/09/11 12:53:32;;;;;;;9.20;3.30;;;;;32.50;100789.00;;;;9996836;29;21445;-78
2023/09/11 12:58:37;;;;;;;7.30;3.30;;;;;32.00;100795.00;;;;10006257;29;20238;-79
2023/09/11 13:03:46;;;;;;;3.70;2.85;;;;;31.30;100800.00;;;;10011200;29;20980;-79
2023/09/11 13:08:48;;;;;;;7.70;3.17;;;;;31.30;100783.00;;;;10013733;29;20304;-80
2023/09/11 13:13:49;;;;;;;6.25;3.08;;;;;32.00;100776.00;;;;10013500;29;21796;-79
2023/09/11 13:19:11;;;;;;;5.65;3.05;;;;;32.00;100792.00;;;;9992306;29;20311;-80
2023/09/11 13:24:13;;;;;;;4.70;2.80;;;;;31.60;100782.00;;;;10030340;29;20244;-79
2023/09/11 13:29:14;;;;;;;6.63;3.17;;;;;30.80;100782.00;;;;10017655;29;20721;-81
2023/09/11 13:34:16;;;;;;;7.53;3.45;;;;;30.40;100774.00;;;;10031963;29;20236;-79
2023/09/11 13:39:17;;;;;;;3.85;3.10;;;;;30.70;100771.00;;;;10022592;29;20262;-79
2023/09/11 13:44:19;;;;;;;3.92;2.97;;;;;31.00;100769.00;;;;9990582;29;20769;-80
2023/09/11 13:49:21;;;;;;;4.95;3.20;;;;;30.30;100775.00;;;;10006147;29;20247;-79
2023/09/11 13:54:22;;;;;;;4.63;3.50;;;;;30.20;100781.00;;;;10026139;29;20887;-78
2023/09/11 13:59:23;;;;;;;5.18;3.47;;;;;30.50;100788.00;;;;10027742;29;20243;-80
2023/09/11 14:04:25;;;;;;;5.53;4.13;;;;;30.50;100799.00;;;;10036773;29;20234;-81
2023/09/11 14:09:27;;;;;;;10.35;4.10;;;;;30.50;100804.00;;;;10012634;29;20299;-80
2023/09/11 14:14:29;;;;;;;6.35;3.70;;;;;30.40;100806.00;;;;10027696;29;20330;-81
2023/09/11 14:19:30;;;;;;;5.03;3.85;;;;;30.50;100812.00;;;;10011884;29;20232;-79
2023/09/11 14:24:33;;;;;;;4.78;3.55;;;;;30.60;100805.00;;;;10009399;29;20798;-78
2023/09/11 14:29:34;;;;;;;5.35;3.80;;;;;30.00;100806.00;;;;10002881;29;20212;-79
2023/09/11 14:34:35;;;;;;;5.68;4.28;;;;;29.30;100812.00;;;;10004895;29;20710;-79
2023/09/11 14:39:37;;;;;;;5.35;3.55;;;;;29.10;100798.00;;;;10009720;29;21341;-79
2023/09/11 14:44:38;;;;;;;6.40;4.43;;;;;29.00;100794.00;;;;10026483;29;20212;-79
2023/09/11 14:49:39;;;;;;;5.25;4.05;;;;;28.80;100796.00;;;;10024462;29;20216;-80
2023/09/11 14:54:41;;;;;;;6.50;4.45;;;;;28.80;100770.00;;;;9999441;29;20583;-79
2023/09/11 14:59:54;;;;;;;10.75;5.00;;;;;28.50;100767.00;;;;10015714;29;20346;-80
2023/09/11 15:04:57;;;;;;;5.75;4.47;;;;;28.50;100761.00;;;;10000686;29;20226;-80
2023/09/11 15:09:58;;;;;;;6.18;4.93;;;;;28.60;100768.00;;;;10011374;29;20212;-79
2023/09/11 15:15:00;;;;;;;7.85;4.72;;;;;28.60;100749.00;;;;10004478;29;20240;-78
2023/09/11 15:20:02;;;;;;;13.45;5.72;;;;;28.00;100741.00;;;;10005590;29;20227;-79
2023/09/11 15:25:05;;;;;;;10.25;5.78;;;;;28.10;100735.00;;;;10021092;29;20220;-79
2023/09/11 15:30:07;;;;;;;11.02;4.95;;;;;28.30;100724.00;;;;10000182;29;20212;-79
2023/09/11 15:35:09;;;;;;;12.05;5.10;;;;;28.60;100721.00;;;;9960017;29;20232;-80
2023/09/11 15:40:10;;;;;;;12.77;6.82;;;;;28.30;100727.00;;;;10017210;29;20216;-79
2023/09/11 15:45:14;;;;;;;10.13;6.93;;;;;28.00;100732.00;;;;9986220;29;20598;-79
2023/09/11 15:50:16;;;;;;;14.18;7.65;;;;;27.60;100746.00;;;;10003350;29;21152;-78
2023/09/11 15:55:17;;;;;;;17.77;9.52;;;;;27.40;100742.00;;;;9999578;29;20354;-77
2023/09/11 16:00:19;;;;;;;13.77;10.02;;;;;27.20;100736.00;;;;9998307;29;20835;-78
2023/09/11 16:05:20;;;;;;;14.82;9.48;;;;;27.20;100745.00;;;;10020579;29;20227;-79
2023/09/11 16:10:21;;;;;;;18.98;9.68;;;;;27.00;100736.00;;;;10015691;29;20228;-78
2023/09/11 16:15:23;;;;;;;14.75;10.25;;;;;26.80;100734.00;;;;10007433;29;20247;-78
2023/09/11 16:20:27;;;;;;;15.50;10.18;;;;;26.70;100742.00;;;;10001980;29;20232;-77
2023/09/11 16:25:30;;;;;;;17.17;9.85;;;;;26.30;100756.00;;;;9997122;29;20216;-78
2023/09/11 16:30:32;;;;;;;19.17;8.80;;;;;26.10;100767.00;;;;9999510;29;20220;-77
2023/09/11 16:35:35;;;;;;;19.52;10.23;;;;;25.80;100765.00;;;;10000354;29;20339;-80
2023/09/11 16:40:36;;;;;;;14.77;9.50;;;;;25.60;100764.00;;;;10002687;29;20221;-78
2023/09/11 16:45:38;;;;;;;16.05;9.63;;;;;25.50;100754.00;;;;10000650;29;20212;-78
2023/09/11 16:50:39;;;;;;;14.00;10.20;;;;;25.30;100753.00;;;;10019575;29;20227;-78
2023/09/11 16:55:40;;;;;;;14.73;9.20;;;;;25.20;100759.00;;;;10012206;29;20240;-79
2023/09/11 17:00:42;;;;;;;15.43;9.55;;;;;25.10;100778.00;;;;9982441;29;20276;-77
2023/09/11 17:05:43;;;;;;;17.13;10.40;;;;;25.10;100772.00;;;;9998145;29;20854;-79
2023/09/11 17:10:45;;;;;;;17.17;9.15;;;;;25.20;100781.00;;;;9998633;29;20954;-78
2023/09/11 17:15:46;;;;;;;12.85;9.80;;;;;25.20;100766.00;;;;9981593;29;20259;-79
2023/09/11 17:20:50;;;;;;;16.20;10.07;;;;;25.30;100760.00;;;;9998894;29;21650;-78
2023/09/11 17:25:51;;;;;;;20.90;10.98;;;;;25.40;100744.00;;;;10019833;29;20227;-79
2023/09/11 17:30:53;;;;;;;17.55;10.98;;;;;25.20;100746.00;;;;9994308;29;20635;-78
2023/09/11 17:35:55;;;;;;;16.40;11.00;;;;;25.10;100745.00;;;;10017577;29;20255;-78
2023/09/11 17:40:56;;;;;;;18.70;10.65;;;;;24.90;100781.00;;;;9987691;29;20220;-79
2023/09/11 17:45:58;;;;;;;19.70;12.25;;;;;24.70;100775.00;;;;9992266;29;20868;-79
2023/09/11 17:51:00;;;;;;;17.52;11.82;;;;;24.50;100767.00;;;;10016608;29;20220;-79
2023/09/11 17:56:01;;;;;;;21.33;13.85;;;;;24.20;100772.00;;;;10004447;29;20802;-79
2023/09/11 18:01:03;;;;;;;19.23;13.23;;;;;23.90;100775.00;;;;10008974;29;20662;-77
2023/09/11 18:06:05;;;;;;;17.58;12.10;;;;;23.70;100771.00;;;;10002219;29;20324;-79
2023/09/11 18:11:06;;;;;;;19.33;12.32;;;;;23.40;100786.00;;;;9992404;29;20603;-79
2023/09/11 18:16:07;;;;;;;18.42;11.88;;;;;23.20;100797.00;;;;9973707;29;20236;-79
2023/09/11 18:21:09;;;;;;;18.65;13.50;;;;;23.00;100790.00;;;;9991403;29;20211;-77
2023/09/11 18:26:10;;;;;;;22.73;13.27;;;;;22.90;100795.00;;;;9984335;29;21215;-78
2023/09/11 18:31:12;;;;;;;19.23;14.05;;;;;22.70;100804.00;;;;9995340;29;20239;-77
2023/09/11 18:36:15;;;;;;;18.80;14.85;;;;;22.60;100808.00;;;;10000857;29;20235;-79
2023/09/11 18:41:16;;;;;;;18.50;14.85;;;;;22.50;100809.00;;;;9997563;29;20228;-80
2023/09/11 18:46:18;;;;;;;19.75;13.85;;;;;22.50;100813.00;;;;9994062;29;20228;-78
2023/09/11 18:51:19;;;;;;;14.57;11.85;;;;;22.40;100823.00;;;;9995293;29;20224;-78
2023/09/11 18:56:20;;;;;;;12.40;11.02;;;;;22.30;100817.00;;;;9975023;29;20536;-77
2023/09/11 19:01:22;;;;;;;13.40;9.80;;;;;22.30;100827.00;;;;9997327;29;20224;-79
2023/09/11 19:06:23;;;;;;;16.77;10.98;;;;;22.20;100831.00;;;;9997862;29;20231;-79
2023/09/11 19:11:25;;;;;;;14.45;11.88;;;;;22.20;100832.00;;;;9977867;29;21162;-79
2023/09/11 19:16:26;;;;;;;17.92;13.43;;;;;22.20;100839.00;;;;9997231;29;20553;-78
2023/09/11 19:21:28;;;;;;;15.73;11.93;;;;;22.20;100853.00;;;;9986356;29;20719;-79
2023/09/11 19:26:30;;;;;;;9.90;8.38;;;;;22.10;100850.00;;;;9994060;29;20216;-78
2023/09/11 19:31:31;;;;;;;10.50;7.90;;;;;22.10;100848.00;;;;10001203;29;20216;-79
2023/09/11 19:36:33;;;;;;;9.82;6.95;;;;;22.00;100850.00;;;;10023840;29;20570;-77
2023/09/11 19:41:34;;;;;;;9.95;7.07;;;;;22.00;100844.00;;;;9999445;29;20220;-79
2023/09/11 19:46:36;;;;;;;10.40;7.00;;;;;21.90;100845.00;;;;9989886;29;20240;-80
2023/09/11 19:51:37;;;;;;;10.07;6.90;;;;;21.90;100850.00;;;;9998101;29;20841;-80
2023/09/11 19:56:39;;;;;;;10.23;6.85;;;;;21.80;100856.00;;;;9998610;29;20827;-78
2023/09/11 20:01:40;;;;;;;11.20;6.85;;;;;21.80;100851.00;;;;10012925;29;20223;-79
2023/09/11 20:06:42;;;;;;;11.52;6.47;;;;;21.80;100856.00;;;;10021116;29;21873;-79
2023/09/11 20:11:44;;;;;;;8.55;6.13;;;;;21.70;100864.00;;;;9994788;29;21925;-78
2023/09/11 20:16:45;;;;;;;9.48;6.60;;;;;21.70;100854.00;;;;10016830;29;20220;-79
2023/09/11 20:21:47;;;;;;;10.13;5.93;;;;;21.60;100850.00;;;;9997221;29;20255;-80
2023/09/11 20:26:48;;;;;;;10.65;6.80;;;;;21.60;100853.00;;;;9999209;29;20212;-79
2023/09/11 20:31:50;;;;;;;11.55;7.28;;;;;21.50;100854.00;;;;9978474;29;20236;-79
2023/09/11 20:36:51;;;;;;;11.13;7.47;;;;;21.50;100856.00;;;;9995629;29;20270;-79
2023/09/11 20:41:53;;;;;;;12.50;7.45;;;;;21.40;100857.00;;;;9994381;29;20268;-78
2023/09/11 20:46:54;;;;;;;11.60;7.35;;;;;21.40;100856.00;;;;10002311;29;20725;-79
2023/09/11 20:51:55;;;;;;;14.18;6.90;;;;;21.40;100859.00;;;;9994980;29;20263;-79
2023/09/11 20:56:57;;;;;;;10.63;8.52;;;;;21.40;100855.00;;;;10001937;29;20220;-78
2023/09/11 21:01:58;;;;;;;12.45;8.75;;;;;21.40;100847.00;;;;10000573;29;20307;-78
2023/09/11 21:07:00;;;;;;;11.18;8.20;;;;;21.40;100847.00;;;;9998433;29;20901;-78
2023/09/11 21:12:02;;;;;;;12.95;8.93;;;;;21.30;100856.00;;;;9990167;29;20256;-80
2023/09/11 21:17:03;;;;;;;9.80;8.40;;;;;21.10;100848.00;;;;9990452;29;20216;-78
2023/09/11 21:22:05;;;;;;;10.77;7.80;;;;;21.00;100847.00;;;;9993902;29;20216;-79
2023/09/11 21:27:06;;;;;;;13.80;8.70;;;;;20.80;100847.00;;;;9988074;29;20981;-76
2023/09/11 21:32:08;;;;;;;13.93;8.73;;;;;20.70;100831.00;;;;9998507;29;20251;-79
2023/09/11 21:37:09;;;;;;;14.07;8.35;;;;;20.70;100817.00;;;;10013619;29;20266;-78
2023/09/11 21:42:10;;;;;;;12.93;7.90;;;;;20.60;100819.00;;;;10002968;29;20685;-77
2023/09/11 21:47:12;;;;;;;14.00;10.15;;;;;20.60;100799.00;;;;10012138;29;20280;-79
2023/09/11 21:52:14;;;;;;;15.13;9.48;;;;;20.50;100796.00;;;;9988591;29;20244;-78
2023/09/11 21:57:16;;;;;;;16.38;11.48;;;;;20.50;100812.00;;;;9989239;29;20929;-79
2023/09/11 22:02:18;;;;;;;13.52;10.95;;;;;20.60;100808.00;;;;9990482;29;20274;-78
2023/09/11 22:07:20;;;;;;;14.40;10.63;;;;;20.60;100801.00;;;;10003081;29;20227;-76
2023/09/11 22:12:21;;;;;;;10.65;8.88;;;;;20.50;100806.00;;;;10014331;29;20236;-78
2023/09/11 22:17:23;;;;;;;14.00;10.40;;;;;20.30;100813.00;;;;10010259;29;20219;-79
2023/09/11 22:22:24;;;;;;;18.00;11.02;;;;;20.10;100813.00;;;;9994436;29;20816;-77
2023/09/11 22:27:26;;;;;;;16.02;10.73;;;;;20.00;100797.00;;;;9986511;29;20308;-77
2023/09/11 22:32:27;;;;;;;21.42;12.55;;;;;19.90;100809.00;;;;9991822;29;20254;-78
2023/09/11 22:37:36;;;;;;;12.23;10.00;;;;;19.80;100807.00;;;;9971032;29;21926;-77
2023/09/11 22:42:37;;;;;;;16.98;11.40;;;;;19.80;100814.00;;;;10008276;29;21757;-78
2023/09/11 22:47:39;;;;;;;16.02;12.02;;;;;19.90;100814.00;;;;9990012;29;20306;-78
2023/09/11 22:52:41;;;;;;;17.60;11.25;;;;;19.90;100812.00;;;;10008811;29;20232;-77
2023/09/11 22:57:44;;;;;;;18.85;11.80;;;;;20.00;100818.00;;;;9991455;29;20209;-78
2023/09/11 23:02:45;;;;;;;15.18;12.02;;;;;20.00;100816.00;;;;10000622;29;20706;-77
2023/09/11 23:07:47;;;;;;;12.88;11.07;;;;;19.90;100818.00;;;;9993833;29;20228;-77
2023/09/11 23:12:48;;;;;;;12.60;9.30;;;;;19.90;100818.00;;;;9991519;29;20232;-78
2023/09/11 23:17:49;;;;;;;15.63;11.13;;;;;19.80;100823.00;;;;9997652;29;20238;-78
2023/09/11 23:22:51;;;;;;;13.25;11.20;;;;;19.70;100825.00;;;;9989966;29;20216;-76
2023/09/11 23:27:52;;;;;;;23.95;12.45;;;;;19.60;100829.00;;;;10003168;29;20216;-78
2023/09/11 23:32:54;;;;;;;19.77;12.73;;;;;19.60;100814.00;;;;9989846;29;20699;-77
2023/09/11 23:37:55;;;;;;;15.68;12.05;;;;;19.50;100824.00;;;;10007530;29;20861;-76
2023/09/11 23:42:57;;;;;;;13.50;11.98;;;;;19.30;100822.00;;;;10014930;29;20252;-78
2023/09/11 23:47:58;;;;;;;14.10;11.68;;;;;19.20;100825.00;;;;10009552;29;21252;-76
2023/09/11 23:53:00;;;;;;;18.48;12.10;;;;;19.10;100829.00;;;;10013263;29;20622;-78
2023/09/11 23:58:01;;;;;;;17.23;13.45;;;;;19.10;100823.00;;;;9990715;29;20243;-78
